sensor_id;sensor_type;location;lat;lon;timestamp;temperature;humidity
32698;DHT22;19087;51.062;3.754;2022-09-14T14:26:25;16.70;99.90
32698;DHT22;19087;51.062;3.754;2022-09-14T14:28:52;16.30;99.90
32698;DHT22;19087;51.062;3.754;2022-09-14T14:31:21;16.40;99.90
32698;DHT22;19087;51.062;3.754;2022-09-14T14:33:51;16.60;99.90
32698;DHT22;19087;51.062;3.754;2022-09-14T14:36:18;16.70;99.90
32698;DHT22;19087;51.062;3.754;2022-09-14T14:38:45;16.90;99.90
32698;DHT22;19087;51.062;3.754;2022-09-14T14:41:14;16.90;99.90
32698;DHT22;19087;51.062;3.754;2022-09-14T14:43:42;17.10;99.90
32698;DHT22;19087;51.062;3.754;2022-09-14T14:46:11;17.30;99.90
32698;DHT22;19087;51.062;3.754;2022-09-14T14:48:37;17.40;99.90
32698;DHT22;19087;51.062;3.754;2022-09-14T14:51:03;17.50;99.90
32698;DHT22;19087;51.062;3.754;2022-09-14T14:53:29;17.60;99.90
32698;DHT22;19087;51.062;3.754;2022-09-14T14:55:56;17.70;99.90
32698;DHT22;19087;51.062;3.754;2022-09-14T14:58:23;17.90;99.90
32698;DHT22;19087;51.062;3.754;2022-09-14T15:00:49;17.90;99.90
32698;DHT22;19087;51.062;3.754;2022-09-14T15:03:15;17.90;99.90
32698;DHT22;19087;51.062;3.754;2022-09-14T15:05:42;17.90;99.90
32698;DHT22;19087;51.062;3.754;2022-09-14T15:08:10;17.80;99.90
32698;DHT22;19087;51.062;3.754;2022-09-14T15:10:36;17.70;99.90
32698;DHT22;19087;51.062;3.754;2022-09-14T15:13:02;17.50;99.90
32698;DHT22;19087;51.062;3.754;2022-09-14T15:15:28;17.60;99.90
32698;DHT22;19087;51.062;3.754;2022-09-14T15:17:54;17.50;99.90
32698;DHT22;19087;51.062;3.754;2022-09-14T15:20:20;17.40;99.90
32698;DHT22;19087;51.062;3.754;2022-09-14T15:22:47;17.40;99.90
32698;DHT22;19087;51.062;3.754;2022-09-14T15:25:13;17.30;99.90
32698;DHT22;19087;51.062;3.754;2022-09-14T15:27:40;17.30;99.90
32698;DHT22;19087;51.062;3.754;2022-09-14T15:30:06;17.30;99.90
32698;DHT22;19087;51.062;3.754;2022-09-14T15:32:33;17.20;99.90
32698;DHT22;19087;51.062;3.754;2022-09-14T15:34:59;17.30;99.90
32698;DHT22;19087;51.062;3.754;2022-09-14T15:37:25;17.50;99.90
32698;DHT22;19087;51.062;3.754;2022-09-14T15:39:51;17.60;99.90
32698;DHT22;19087;51.062;3.754;2022-09-14T15:42:17;17.60;99.90
32698;DHT22;19087;51.062;3.754;2022-09-14T15:44:44;17.70;99.90
32698;DHT22;19087;51.062;3.754;2022-09-14T15:47:13;17.70;99.90
32698;DHT22;19087;51.062;3.754;2022-09-14T15:49:40;17.70;99.90
32698;DHT22;19087;51.062;3.754;2022-09-14T15:52:08;17.70;99.90
32698;DHT22;19087;51.062;3.754;2022-09-14T15:54:34;17.60;99.90
32698;DHT22;19087;51.062;3.754;2022-09-14T15:57:06;17.70;99.90
32698;DHT22;19087;51.062;3.754;2022-09-14T15:59:32;17.90;99.90
32698;DHT22;19087;51.062;3.754;2022-09-14T16:01:59;18.00;99.90
32698;DHT22;19087;51.062;3.754;2022-09-14T16:04:25;18.00;99.90
32698;DHT22;19087;51.062;3.754;2022-09-14T16:06:52;18.20;99.90
32698;DHT22;19087;51.062;3.754;2022-09-14T16:09:18;18.40;99.90
32698;DHT22;19087;51.062;3.754;2022-09-14T16:11:47;18.40;99.90
32698;DHT22;19087;51.062;3.754;2022-09-14T16:14:15;18.30;99.90
32698;DHT22;19087;51.062;3.754;2022-09-14T16:16:41;18.00;99.90
32698;DHT22;19087;51.062;3.754;2022-09-14T16:19:12;17.90;99.90
32698;DHT22;19087;51.062;3.754;2022-09-14T16:21:40;17.90;99.90
32698;DHT22;19087;51.062;3.754;2022-09-14T16:24:09;17.90;99.90
32698;DHT22;19087;51.062;3.754;2022-09-14T16:26:36;17.90;99.90
32698;DHT22;19087;51.062;3.754;2022-09-14T16:29:03;18.00;99.90
32698;DHT22;19087;51.062;3.754;2022-09-14T16:31:32;18.10;99.90
32698;DHT22;19087;51.062;3.754;2022-09-14T16:34:01;18.10;99.90
32698;DHT22;19087;51.062;3.754;2022-09-14T16:36:30;18.20;99.90
32698;DHT22;19087;51.062;3.754;2022-09-14T16:38:59;18.10;99.90
32698;DHT22;19087;51.062;3.754;2022-09-14T16:41:26;18.00;99.90
32698;DHT22;19087;51.062;3.754;2022-09-14T16:44:00;18.10;99.90
32698;DHT22;19087;51.062;3.754;2022-09-14T16:46:28;18.10;99.90
32698;DHT22;19087;51.062;3.754;2022-09-14T16:48:54;18.10;99.90
32698;DHT22;19087;51.062;3.754;2022-09-14T16:51:22;18.10;99.90
32698;DHT22;19087;51.062;3.754;2022-09-14T16:53:49;18.00;99.90
32698;DHT22;19087;51.062;3.754;2022-09-14T16:56:18;18.00;99.90
32698;DHT22;19087;51.062;3.754;2022-09-14T16:58:47;17.90;99.90
32698;DHT22;19087;51.062;3.754;2022-09-14T17:01:21;17.70;99.90
32698;DHT22;19087;51.062;3.754;2022-09-14T17:03:49;17.70;99.90
32698;DHT22;19087;51.062;3.754;2022-09-14T17:06:17;17.70;99.90
32698;DHT22;19087;51.062;3.754;2022-09-14T17:08:44;17.60;99.90
32698;DHT22;19087;51.062;3.754;2022-09-14T17:11:11;17.60;99.90
32698;DHT22;19087;51.062;3.754;2022-09-14T17:13:37;17.70;99.90
32698;DHT22;19087;51.062;3.754;2022-09-14T17:16:06;17.70;99.90
32698;DHT22;19087;51.062;3.754;2022-09-14T17:18:33;17.60;99.90
32698;DHT22;19087;51.062;3.754;2022-09-14T17:21:07;17.70;99.90
32698;DHT22;19087;51.062;3.754;2022-09-14T17:23:33;17.70;99.90
32698;DHT22;19087;51.062;3.754;2022-09-14T17:25:59;17.70;99.90
32698;DHT22;19087;51.062;3.754;2022-09-14T17:28:26;17.70;99.90
32698;DHT22;19087;51.062;3.754;2022-09-14T17:30:54;17.70;99.90
32698;DHT22;19087;51.062;3.754;2022-09-14T17:33:20;17.80;99.90
32698;DHT22;19087;51.062;3.754;2022-09-14T17:35:47;17.70;99.90
32698;DHT22;19087;51.062;3.754;2022-09-14T17:38:14;17.80;99.90
32698;DHT22;19087;51.062;3.754;2022-09-14T17:40:40;17.70;99.90
32698;DHT22;19087;51.062;3.754;2022-09-14T17:43:06;17.70;99.90
32698;DHT22;19087;51.062;3.754;2022-09-14T17:45:32;17.80;99.90
32698;DHT22;19087;51.062;3.754;2022-09-14T17:47:57;17.80;99.90
32698;DHT22;19087;51.062;3.754;2022-09-14T17:50:23;17.70;99.90
32698;DHT22;19087;51.062;3.754;2022-09-14T17:52:49;17.70;99.90
32698;DHT22;19087;51.062;3.754;2022-09-14T17:55:16;17.70;99.90
32698;DHT22;19087;51.062;3.754;2022-09-14T17:57:42;17.70;99.90
32698;DHT22;19087;51.062;3.754;2022-09-14T18:00:08;17.60;99.90
32698;DHT22;19087;51.062;3.754;2022-09-14T18:02:34;17.50;99.90
32698;DHT22;19087;51.062;3.754;2022-09-14T18:04:59;17.60;99.90
32698;DHT22;19087;51.062;3.754;2022-09-14T18:07:28;17.50;99.90
32698;DHT22;19087;51.062;3.754;2022-09-14T18:09:55;17.60;99.90
32698;DHT22;19087;51.062;3.754;2022-09-14T18:12:21;17.60;99.90
32698;DHT22;19087;51.062;3.754;2022-09-14T18:14:47;17.60;99.90
32698;DHT22;19087;51.062;3.754;2022-09-14T18:17:13;17.60;99.90
32698;DHT22;19087;51.062;3.754;2022-09-14T18:19:38;17.60;99.90
32698;DHT22;19087;51.062;3.754;2022-09-14T18:22:05;17.40;99.90
32698;DHT22;19087;51.062;3.754;2022-09-14T18:24:31;17.50;99.90
32698;DHT22;19087;51.062;3.754;2022-09-14T18:26:58;17.50;99.90
32698;DHT22;19087;51.062;3.754;2022-09-14T18:29:24;17.50;99.90
32698;DHT22;19087;51.062;3.754;2022-09-14T18:31:51;17.50;99.90
32698;DHT22;19087;51.062;3.754;2022-09-14T18:34:19;17.50;99.90
32698;DHT22;19087;51.062;3.754;2022-09-14T18:36:45;17.50;99.90
32698;DHT22;19087;51.062;3.754;2022-09-14T18:39:11;17.40;99.90
32698;DHT22;19087;51.062;3.754;2022-09-14T18:41:37;17.30;99.90
32698;DHT22;19087;51.062;3.754;2022-09-14T18:44:06;17.10;99.90
32698;DHT22;19087;51.062;3.754;2022-09-14T18:46:32;17.00;99.90
32698;DHT22;19087;51.062;3.754;2022-09-14T18:48:59;17.00;99.90
32698;DHT22;19087;51.062;3.754;2022-09-14T18:51:27;17.00;99.90
32698;DHT22;19087;51.062;3.754;2022-09-14T18:54:01;16.90;99.90
32698;DHT22;19087;51.062;3.754;2022-09-14T18:56:28;16.80;99.90
32698;DHT22;19087;51.062;3.754;2022-09-14T18:58:54;16.70;99.90
32698;DHT22;19087;51.062;3.754;2022-09-14T19:01:19;16.70;99.90
32698;DHT22;19087;51.062;3.754;2022-09-14T19:03:45;16.60;99.90
32698;DHT22;19087;51.062;3.754;2022-09-14T19:06:14;16.60;99.90
32698;DHT22;19087;51.062;3.754;2022-09-14T19:08:40;16.50;99.90
32698;DHT22;19087;51.062;3.754;2022-09-14T19:11:15;16.50;99.90
32698;DHT22;19087;51.062;3.754;2022-09-14T19:13:41;16.40;99.90
32698;DHT22;19087;51.062;3.754;2022-09-14T19:16:08;16.40;99.90
32698;DHT22;19087;51.062;3.754;2022-09-14T19:18:34;16.30;99.90
32698;DHT22;19087;51.062;3.754;2022-09-14T19:21:09;16.40;99.90
32698;DHT22;19087;51.062;3.754;2022-09-14T19:23:37;16.50;99.90
32698;DHT22;19087;51.062;3.754;2022-09-14T19:26:09;16.40;99.90
32698;DHT22;19087;51.062;3.754;2022-09-14T19:28:36;16.30;99.90
32698;DHT22;19087;51.062;3.754;2022-09-14T19:31:10;16.10;99.90
32698;DHT22;19087;51.062;3.754;2022-09-14T19:33:38;15.90;99.90
32698;DHT22;19087;51.062;3.754;2022-09-14T19:36:08;16.00;99.90
32698;DHT22;19087;51.062;3.754;2022-09-14T19:38:35;15.90;99.90
32698;DHT22;19087;51.062;3.754;2022-09-14T19:41:02;15.80;99.90
32698;DHT22;19087;51.062;3.754;2022-09-14T19:43:29;15.90;99.90
32698;DHT22;19087;51.062;3.754;2022-09-14T19:46:06;15.80;99.90
32698;DHT22;19087;51.062;3.754;2022-09-14T19:48:33;15.90;99.90
32698;DHT22;19087;51.062;3.754;2022-09-14T19:51:00;15.80;99.90
32698;DHT22;19087;51.062;3.754;2022-09-14T19:53:28;15.70;99.90
32698;DHT22;19087;51.062;3.754;2022-09-14T19:55:55;15.50;99.90
32698;DHT22;19087;51.062;3.754;2022-09-14T19:58:22;15.50;99.90
32698;DHT22;19087;51.062;3.754;2022-09-14T20:00:57;15.50;99.90
32698;DHT22;19087;51.062;3.754;2022-09-14T20:03:24;15.50;99.90
32698;DHT22;19087;51.062;3.754;2022-09-14T20:06:13;15.50;99.90
32698;DHT22;19087;51.062;3.754;2022-09-14T20:08:45;15.60;99.90
32698;DHT22;19087;51.062;3.754;2022-09-14T20:11:12;15.60;99.90
32698;DHT22;19087;51.062;3.754;2022-09-14T20:13:39;15.60;99.90
32698;DHT22;19087;51.062;3.754;2022-09-14T20:16:16;15.60;99.90
32698;DHT22;19087;51.062;3.754;2022-09-14T20:18:43;15.60;99.90
32698;DHT22;19087;51.062;3.754;2022-09-14T20:21:11;15.50;99.90
32698;DHT22;19087;51.062;3.754;2022-09-14T20:23:38;15.50;99.90
32698;DHT22;19087;51.062;3.754;2022-09-14T20:26:07;15.40;99.90
32698;DHT22;19087;51.062;3.754;2022-09-14T20:28:34;15.40;99.90
32698;DHT22;19087;51.062;3.754;2022-09-14T20:31:05;15.30;99.90
32698;DHT22;19087;51.062;3.754;2022-09-14T20:33:32;15.20;99.90
32698;DHT22;19087;51.062;3.754;2022-09-14T20:36:03;15.20;99.90
32698;DHT22;19087;51.062;3.754;2022-09-14T20:38:29;15.20;99.90
32698;DHT22;19087;51.062;3.754;2022-09-14T20:41:06;15.10;99.90
32698;DHT22;19087;51.062;3.754;2022-09-14T20:43:36;15.20;99.90
32698;DHT22;19087;51.062;3.754;2022-09-14T20:46:08;15.10;99.90
32698;DHT22;19087;51.062;3.754;2022-09-14T20:48:35;15.10;99.90
32698;DHT22;19087;51.062;3.754;2022-09-14T20:51:03;15.20;99.90
32698;DHT22;19087;51.062;3.754;2022-09-14T20:53:31;15.10;99.90
32698;DHT22;19087;51.062;3.754;2022-09-14T20:56:06;15.10;99.90
32698;DHT22;19087;51.062;3.754;2022-09-14T20:58:32;15.10;99.90
32698;DHT22;19087;51.062;3.754;2022-09-14T21:01:03;15.10;99.90
32698;DHT22;19087;51.062;3.754;2022-09-14T21:03:31;15.10;99.90
32698;DHT22;19087;51.062;3.754;2022-09-14T21:06:01;15.00;99.90
32698;DHT22;19087;51.062;3.754;2022-09-14T21:08:29;14.90;99.90
32698;DHT22;19087;51.062;3.754;2022-09-14T21:10:55;14.90;99.90
32698;DHT22;19087;51.062;3.754;2022-09-14T21:13:21;14.90;99.90
32698;DHT22;19087;51.062;3.754;2022-09-14T21:15:47;14.90;99.90
32698;DHT22;19087;51.062;3.754;2022-09-14T21:18:14;14.80;99.90
32698;DHT22;19087;51.062;3.754;2022-09-14T21:20:39;14.80;99.90
32698;DHT22;19087;51.062;3.754;2022-09-14T21:23:05;14.90;99.90
32698;DHT22;19087;51.062;3.754;2022-09-14T21:25:32;14.90;99.90
32698;DHT22;19087;51.062;3.754;2022-09-14T21:27:58;14.80;99.90
32698;DHT22;19087;51.062;3.754;2022-09-14T21:30:24;14.70;99.90
32698;DHT22;19087;51.062;3.754;2022-09-14T21:32:50;14.50;99.90
32698;DHT22;19087;51.062;3.754;2022-09-14T21:35:17;14.60;99.90
32698;DHT22;19087;51.062;3.754;2022-09-14T21:37:49;14.60;99.90
32698;DHT22;19087;51.062;3.754;2022-09-14T21:40:17;14.70;99.90
32698;DHT22;19087;51.062;3.754;2022-09-14T21:42:46;14.50;99.90
32698;DHT22;19087;51.062;3.754;2022-09-14T21:45:12;14.50;99.90
32698;DHT22;19087;51.062;3.754;2022-09-14T21:47:38;14.50;99.90
32698;DHT22;19087;51.062;3.754;2022-09-14T21:50:05;14.40;99.90
32698;DHT22;19087;51.062;3.754;2022-09-14T21:52:31;14.40;99.90
32698;DHT22;19087;51.062;3.754;2022-09-14T21:54:57;14.40;99.90
32698;DHT22;19087;51.062;3.754;2022-09-14T21:57:23;14.40;99.90
32698;DHT22;19087;51.062;3.754;2022-09-14T21:59:49;14.40;99.90
32698;DHT22;19087;51.062;3.754;2022-09-14T22:02:15;14.50;99.90
32698;DHT22;19087;51.062;3.754;2022-09-14T22:04:40;14.30;99.90
32698;DHT22;19087;51.062;3.754;2022-09-14T22:07:06;14.20;99.90
32698;DHT22;19087;51.062;3.754;2022-09-14T22:09:32;14.20;99.90
32698;DHT22;19087;51.062;3.754;2022-09-14T22:11:58;14.30;99.90
32698;DHT22;19087;51.062;3.754;2022-09-14T22:14:26;14.20;99.90
32698;DHT22;19087;51.062;3.754;2022-09-14T22:16:52;14.10;99.90
32698;DHT22;19087;51.062;3.754;2022-09-14T22:19:21;14.10;99.90
32698;DHT22;19087;51.062;3.754;2022-09-14T22:21:48;14.20;99.90
32698;DHT22;19087;51.062;3.754;2022-09-14T22:24:27;14.30;99.90
32698;DHT22;19087;51.062;3.754;2022-09-14T22:26:54;14.20;99.90
32698;DHT22;19087;51.062;3.754;2022-09-14T22:29:23;14.10;99.90
32698;DHT22;19087;51.062;3.754;2022-09-14T22:31:49;13.90;99.90
32698;DHT22;19087;51.062;3.754;2022-09-14T22:34:15;13.80;99.90
32698;DHT22;19087;51.062;3.754;2022-09-14T22:36:41;14.00;99.90
32698;DHT22;19087;51.062;3.754;2022-09-14T22:39:08;14.10;99.90
32698;DHT22;19087;51.062;3.754;2022-09-14T22:41:35;14.20;99.90
32698;DHT22;19087;51.062;3.754;2022-09-14T22:44:02;14.20;99.90
32698;DHT22;19087;51.062;3.754;2022-09-14T22:46:28;14.10;99.90
32698;DHT22;19087;51.062;3.754;2022-09-14T22:48:54;14.10;99.90
32698;DHT22;19087;51.062;3.754;2022-09-14T22:51:24;14.20;99.90
32698;DHT22;19087;51.062;3.754;2022-09-14T22:53:51;14.40;99.90
32698;DHT22;19087;51.062;3.754;2022-09-14T22:56:20;14.40;99.90
32698;DHT22;19087;51.062;3.754;2022-09-14T22:58:46;14.50;99.90
32698;DHT22;19087;51.062;3.754;2022-09-14T23:01:16;14.50;99.90
32698;DHT22;19087;51.062;3.754;2022-09-14T23:03:42;14.50;99.90
32698;DHT22;19087;51.062;3.754;2022-09-14T23:06:08;14.60;99.90
32698;DHT22;19087;51.062;3.754;2022-09-14T23:08:34;14.40;99.90
32698;DHT22;19087;51.062;3.754;2022-09-14T23:11:05;14.40;99.90
32698;DHT22;19087;51.062;3.754;2022-09-14T23:13:34;14.50;99.90
32698;DHT22;19087;51.062;3.754;2022-09-14T23:16:00;14.70;99.90
32698;DHT22;19087;51.062;3.754;2022-09-14T23:18:26;14.60;99.90
32698;DHT22;19087;51.062;3.754;2022-09-14T23:20:52;14.60;99.90
32698;DHT22;19087;51.062;3.754;2022-09-14T23:23:19;14.50;99.90
32698;DHT22;19087;51.062;3.754;2022-09-14T23:25:44;14.40;99.90
32698;DHT22;19087;51.062;3.754;2022-09-14T23:28:11;14.40;99.90
32698;DHT22;19087;51.062;3.754;2022-09-14T23:30:37;14.40;99.90
32698;DHT22;19087;51.062;3.754;2022-09-14T23:33:03;14.40;99.90
32698;DHT22;19087;51.062;3.754;2022-09-14T23:35:29;14.50;99.90
32698;DHT22;19087;51.062;3.754;2022-09-14T23:37:55;14.60;99.90
32698;DHT22;19087;51.062;3.754;2022-09-14T23:40:23;14.60;99.90
32698;DHT22;19087;51.062;3.754;2022-09-14T23:42:49;14.50;99.90
32698;DHT22;19087;51.062;3.754;2022-09-14T23:45:15;14.50;99.90
32698;DHT22;19087;51.062;3.754;2022-09-14T23:47:40;14.30;99.90
32698;DHT22;19087;51.062;3.754;2022-09-14T23:50:07;14.30;99.90
32698;DHT22;19087;51.062;3.754;2022-09-14T23:52:33;14.30;99.90
32698;DHT22;19087;51.062;3.754;2022-09-14T23:54:59;14.20;99.90
32698;DHT22;19087;51.062;3.754;2022-09-14T23:57:25;14.30;99.90
32698;DHT22;19087;51.062;3.754;2022-09-14T23:59:51;14.40;99.90
